Time;durP1;ratioP1;P1;durP2;ratioP2;P2;SDS_P1;SDS_P2;PMS_P1;PMS_P2;Temp;Humidity;BMP_temperature;BMP_pressure;BME280_temperature;BME280_humidity;BME280_pressure;Samples;Min_cycle;Max_cycle;Signal;HPM_P1;HPM_P2
2023/11/19 00:02:24;;;;;;;2.13;1.20;;;20.50;52.00;;;;;;5037233;28;20360;-58
2023/11/19 00:04:50;;;;;;;1.85;1.25;;;20.50;52.00;;;;;;5020061;28;20345;-59
2023/11/19 00:07:15;;;;;;;2.33;1.20;;;20.50;52.10;;;;;;5033465;28;20033;-60
2023/11/19 00:09:43;;;;;;;3.38;0.95;;;20.50;52.20;;;;;;5034342;28;20045;-58
2023/11/19 00:12:09;;;;;;;1.83;1.23;;;20.50;52.20;;;;;;5032806;28;20056;-60
2023/11/19 00:14:35;;;;;;;3.65;0.95;;;20.50;52.30;;;;;;5033169;28;20092;-60
2023/11/19 00:17:01;;;;;;;1.65;1.08;;;20.50;52.30;;;;;;5031140;28;20025;-55
2023/11/19 00:19:27;;;;;;;1.02;0.80;;;20.50;52.40;;;;;;5031817;28;20036;-59
2023/11/19 00:21:53;;;;;;;1.73;0.98;;;20.50;52.40;;;;;;5036619;28;20344;-58
2023/11/19 00:24:20;;;;;;;1.80;0.95;;;20.50;52.50;;;;;;5030769;28;20044;-59
2023/11/19 00:26:46;;;;;;;1.73;1.08;;;20.50;52.60;;;;;;5030463;28;20068;-59
2023/11/19 00:29:13;;;;;;;1.60;0.93;;;20.50;52.60;;;;;;5034021;28;20034;-58
2023/11/19 00:31:39;;;;;;;1.77;0.80;;;20.50;52.60;;;;;;5033940;28;20356;-61
2023/11/19 00:34:06;;;;;;;1.50;0.85;;;20.50;52.60;;;;;;5032755;28;20140;-59
2023/11/19 00:36:32;;;;;;;2.75;1.00;;;20.50;52.70;;;;;;5015875;28;20026;-58
2023/11/19 00:38:58;;;;;;;1.35;0.73;;;20.50;52.80;;;;;;5017769;28;20025;-60
2023/11/19 00:41:25;;;;;;;1.00;0.70;;;20.50;52.80;;;;;;5034159;28;20484;-60
2023/11/19 00:43:51;;;;;;;2.22;1.08;;;20.50;52.80;;;;;;5033917;28;20449;-60
2023/11/19 00:46:18;;;;;;;2.47;0.95;;;20.40;52.70;;;;;;5014942;28;20087;-59
2023/11/19 00:48:43;;;;;;;2.13;0.95;;;20.50;52.90;;;;;;5032604;28;20194;-58
2023/11/19 00:51:12;;;;;;;1.17;0.75;;;20.40;52.80;;;;;;5034208;28;20029;-60
2023/11/19 00:53:38;;;;;;;1.80;0.70;;;20.50;52.90;;;;;;5002456;28;20484;-61
2023/11/19 00:56:04;;;;;;;2.03;0.90;;;20.50;53.00;;;;;;5015015;28;20029;-60
2023/11/19 00:58:30;;;;;;;2.20;0.95;;;20.50;53.60;;;;;;5033556;28;20022;-60
2023/11/19 01:00:57;;;;;;;0.88;0.63;;;20.40;53.00;;;;;;5015386;28;20052;-58
2023/11/19 01:03:23;;;;;;;1.38;0.77;;;20.40;53.00;;;;;;5033337;28;20052;-59
2023/11/19 01:05:48;;;;;;;1.65;0.80;;;20.40;53.00;;;;;;5031040;28;20530;-57
2023/11/19 01:08:15;;;;;;;3.25;1.00;;;20.50;53.10;;;;;;5016169;28;20121;-58
2023/11/19 01:10:41;;;;;;;1.75;0.80;;;20.50;53.10;;;;;;5017040;28;20444;-59
2023/11/19 01:13:07;;;;;;;3.08;0.95;;;20.40;53.10;;;;;;5014166;28;20068;-60
2023/11/19 01:15:33;;;;;;;1.65;0.80;;;20.40;53.10;;;;;;5036090;28;20439;-60
2023/11/19 01:18:00;;;;;;;2.00;0.90;;;20.40;53.20;;;;;;5013875;28;20021;-59
2023/11/19 01:20:26;;;;;;;2.38;0.90;;;20.40;53.20;;;;;;5034318;28;20034;-59
2023/11/19 01:22:52;;;;;;;1.63;0.93;;;20.40;53.20;;;;;;5034029;28;20026;-59
2023/11/19 01:25:18;;;;;;;2.33;0.75;;;20.50;53.30;;;;;;5031677;28;20033;-59
2023/11/19 01:27:44;;;;;;;2.20;0.95;;;20.40;53.30;;;;;;5020028;28;20055;-57
2023/11/19 01:30:12;;;;;;;2.10;0.98;;;20.50;53.30;;;;;;5016470;28;20035;-59
2023/11/19 01:32:40;;;;;;;1.10;0.60;;;20.40;53.30;;;;;;5016065;28;20032;-58
2023/11/19 01:35:07;;;;;;;3.20;0.93;;;20.40;53.30;;;;;;5035061;28;20055;-59
2023/11/19 01:37:36;;;;;;;2.10;1.13;;;20.50;53.40;;;;;;5015067;28;20014;-60
2023/11/19 01:40:08;;;;;;;2.75;0.80;;;20.40;53.30;;;;;;5031770;28;20124;-59
2023/11/19 01:42:41;;;;;;;3.08;0.90;;;20.40;53.30;;;;;;5035070;28;20291;-60
2023/11/19 01:45:09;;;;;;;1.95;0.80;;;20.40;53.40;;;;;;5048352;28;20026;-60
2023/11/19 01:47:36;;;;;;;3.38;1.10;;;20.40;53.30;;;;;;5033946;28;20033;-59
2023/11/19 01:50:06;;;;;;;2.65;0.90;;;20.40;53.40;;;;;;5019734;28;20033;-58
2023/11/19 01:52:38;;;;;;;2.70;1.00;;;20.40;53.40;;;;;;5021398;28;20021;-57
2023/11/19 01:55:04;;;;;;;2.55;0.95;;;20.40;53.40;;;;;;5033926;28;20063;-59
2023/11/19 01:57:30;;;;;;;2.78;0.82;;;20.40;53.40;;;;;;5005832;28;20040;-60
2023/11/19 01:59:56;;;;;;;2.80;1.00;;;20.40;53.40;;;;;;5016244;28;20029;-59
2023/11/19 02:02:22;;;;;;;2.60;1.15;;;20.40;53.40;;;;;;5020457;28;20029;-59
2023/11/19 02:04:51;;;;;;;3.25;1.10;;;20.40;53.40;;;;;;5036650;28;20060;-58
2023/11/19 02:07:19;;;;;;;4.03;1.42;;;20.40;53.40;;;;;;5000440;28;20021;-60
2023/11/19 02:09:45;;;;;;;2.95;0.82;;;20.40;53.40;;;;;;5016054;28;20419;-60
2023/11/19 02:12:15;;;;;;;2.83;1.30;;;20.40;53.40;;;;;;5037524;28;20053;-59
2023/11/19 02:14:41;;;;;;;3.70;1.02;;;20.40;53.40;;;;;;5035166;28;20057;-60
2023/11/19 02:17:24;;;;;;;4.80;1.13;;;20.40;53.40;;;;;;5017392;28;20021;-59
2023/11/19 02:19:50;;;;;;;2.85;0.90;;;20.40;53.40;;;;;;5031202;28;20033;-57
2023/11/19 02:22:16;;;;;;;2.42;0.90;;;20.40;53.40;;;;;;5033967;28;20124;-60
2023/11/19 02:24:42;;;;;;;2.67;1.00;;;20.40;53.40;;;;;;5017799;28;20624;-60
2023/11/19 02:27:20;;;;;;;3.72;1.00;;;20.40;53.40;;;;;;5018625;28;20075;-59
2023/11/19 02:29:46;;;;;;;3.58;1.33;;;20.40;53.40;;;;;;5033835;28;20104;-59
2023/11/19 02:32:13;;;;;;;3.78;1.40;;;20.40;53.40;;;;;;5017715;28;20029;-59
2023/11/19 02:34:39;;;;;;;2.83;1.00;;;20.40;53.40;;;;;;5033774;28;20460;-58
2023/11/19 02:37:05;;;;;;;3.92;1.23;;;20.40;53.40;;;;;;5018848;28;20047;-58
2023/11/19 02:39:31;;;;;;;2.60;1.00;;;20.30;53.30;;;;;;5019034;28;20925;-60
2023/11/19 02:41:57;;;;;;;2.08;0.80;;;20.30;53.30;;;;;;5018910;28;20036;-57
2023/11/19 02:44:23;;;;;;;3.10;1.00;;;20.30;53.30;;;;;;5035426;28;20041;-59
2023/11/19 02:46:49;;;;;;;3.15;1.33;;;20.40;53.30;;;;;;5047134;28;20363;-60
2023/11/19 02:49:15;;;;;;;3.03;1.13;;;20.30;53.30;;;;;;5006487;28;20026;-59
2023/11/19 02:51:41;;;;;;;4.22;1.08;;;20.30;53.30;;;;;;5031941;28;20041;-59
2023/11/19 02:54:07;;;;;;;4.35;1.27;;;20.40;53.30;;;;;;5036484;28;20350;-60
2023/11/19 02:56:37;;;;;;;3.75;1.15;;;20.40;53.30;;;;;;5019576;28;20360;-59
2023/11/19 02:59:26;;;;;;;4.35;1.25;;;20.40;53.20;;;;;;5034927;28;20558;-60
2023/11/19 03:01:52;;;;;;;3.42;1.20;;;20.30;53.10;;;;;;5019027;28;20045;-59
2023/11/19 03:04:20;;;;;;;5.30;1.10;;;20.30;53.10;;;;;;5015850;28;20030;-59
2023/11/19 03:06:47;;;;;;;3.90;1.40;;;20.30;53.10;;;;;;5017035;28;20034;-60
2023/11/19 03:09:12;;;;;;;3.15;1.25;;;20.30;53.10;;;;;;5018176;28;20029;-58
2023/11/19 03:11:39;;;;;;;4.47;1.50;;;20.30;53.10;;;;;;5016767;28;20033;-58
2023/11/19 03:14:05;;;;;;;3.47;1.30;;;20.30;53.10;;;;;;5013163;28;20376;-60
2023/11/19 03:16:30;;;;;;;4.88;1.42;;;20.40;53.10;;;;;;5013312;28;20025;-60
2023/11/19 03:18:56;;;;;;;4.97;1.52;;;20.30;53.00;;;;;;5012617;28;20029;-59
2023/11/19 03:21:29;;;;;;;4.45;1.35;;;20.30;53.00;;;;;;5014676;28;20460;-59
2023/11/19 03:23:59;;;;;;;5.40;1.70;;;20.30;53.00;;;;;;5013654;28;20036;-59
2023/11/19 03:26:27;;;;;;;4.75;1.50;;;20.30;52.90;;;;;;5017037;28;20338;-57
2023/11/19 03:28:54;;;;;;;4.97;1.50;;;20.30;52.90;;;;;;5014556;28;20022;-59
2023/11/19 03:31:20;;;;;;;3.53;1.40;;;20.30;52.80;;;;;;5016576;28;20049;-58
2023/11/19 03:33:46;;;;;;;6.05;1.55;;;20.30;52.80;;;;;;5043224;28;20060;-60
2023/11/19 03:36:12;;;;;;;4.30;1.58;;;20.30;52.80;;;;;;5014490;28;20340;-59
2023/11/19 03:38:38;;;;;;;5.68;1.95;;;20.30;52.70;;;;;;5016000;28;20036;-58
2023/11/19 03:41:12;;;;;;;6.47;1.88;;;20.30;52.70;;;;;;5013112;28;21833;-61
2023/11/19 03:43:39;;;;;;;6.40;1.70;;;20.30;52.70;;;;;;5013675;28;20033;-60
2023/11/19 03:46:15;;;;;;;7.13;1.67;;;20.30;52.70;;;;;;5029616;28;20501;-59
2023/11/19 03:48:41;;;;;;;5.15;2.00;;;20.30;52.70;;;;;;5011573;28;20029;-59
2023/11/19 03:51:07;;;;;;;4.13;1.35;;;20.30;52.70;;;;;;5012115;28;20346;-60
2023/11/19 03:53:33;;;;;;;4.93;1.55;;;20.30;52.70;;;;;;5028797;28;20033;-60
2023/11/19 03:55:59;;;;;;;5.22;1.70;;;20.30;52.60;;;;;;5018908;28;20061;-59
2023/11/19 03:58:25;;;;;;;6.57;1.92;;;20.30;52.60;;;;;;5012852;28;20407;-58
2023/11/19 04:00:52;;;;;;;5.40;1.60;;;20.30;52.60;;;;;;5015221;28;20095;-60
2023/11/19 04:03:19;;;;;;;5.75;1.88;;;20.30;52.50;;;;;;5012232;28;20033;-60
2023/11/19 04:05:45;;;;;;;5.95;1.50;;;20.30;52.50;;;;;;5014894;28;20109;-58
2023/11/19 04:08:11;;;;;;;5.65;1.70;;;20.30;52.50;;;;;;5009542;28;20121;-60
2023/11/19 04:10:37;;;;;;;5.38;1.75;;;20.30;52.40;;;;;;5029895;28;20057;-60
2023/11/19 04:13:02;;;;;;;4.07;1.60;;;20.30;52.40;;;;;;5012280;28;20129;-57
2023/11/19 04:15:29;;;;;;;5.22;1.75;;;20.30;52.30;;;;;;5032295;28;20069;-60
2023/11/19 04:17:54;;;;;;;4.32;2.00;;;20.30;52.30;;;;;;5014214;28;20041;-58
2023/11/19 04:20:21;;;;;;;6.38;1.92;;;20.30;52.30;;;;;;5019048;28;20041;-59
2023/11/19 04:22:47;;;;;;;3.72;1.40;;;20.30;52.20;;;;;;5032348;28;20123;-57
2023/11/19 04:25:13;;;;;;;4.15;1.60;;;20.20;52.20;;;;;;5013136;28;20076;-59
2023/11/19 04:27:39;;;;;;;5.13;1.63;;;20.20;52.10;;;;;;5018735;28;20029;-59
2023/11/19 04:30:10;;;;;;;5.80;2.00;;;20.20;52.10;;;;;;5030255;28;20025;-59
2023/11/19 04:32:37;;;;;;;4.80;1.80;;;20.30;52.10;;;;;;5015620;28;20037;-59
2023/11/19 04:35:03;;;;;;;6.30;1.95;;;20.30;52.10;;;;;;5045852;28;20060;-59
2023/11/19 04:37:29;;;;;;;5.05;1.83;;;20.20;52.00;;;;;;5034279;28;20033;-59
2023/11/19 04:39:55;;;;;;;5.60;1.80;;;20.30;52.00;;;;;;5033924;28;21196;-60
2023/11/19 04:42:24;;;;;;;7.05;2.20;;;20.20;51.90;;;;;;5034077;28;20196;-59
2023/11/19 04:44:50;;;;;;;4.95;1.80;;;20.20;51.90;;;;;;5034219;28;20026;-60
2023/11/19 04:47:16;;;;;;;5.93;2.05;;;20.20;51.80;;;;;;5033927;28;20035;-60
2023/11/19 04:49:45;;;;;;;5.88;2.13;;;20.20;51.80;;;;;;5037513;28;20341;-60
2023/11/19 04:52:11;;;;;;;6.50;2.30;;;20.20;51.80;;;;;;5034880;28;20028;-60
2023/11/19 04:54:44;;;;;;;4.60;1.70;;;20.20;51.70;;;;;;5034134;28;20329;-60
2023/11/19 04:57:13;;;;;;;5.80;1.83;;;20.20;51.70;;;;;;5030482;28;20021;-60
2023/11/19 04:59:39;;;;;;;6.55;1.88;;;20.20;51.70;;;;;;5032367;28;20041;-60
2023/11/19 05:02:05;;;;;;;6.45;2.03;;;20.20;51.60;;;;;;5030205;28;20021;-61
2023/11/19 05:04:32;;;;;;;7.57;2.03;;;20.20;51.60;;;;;;5015264;28;20047;-58
2023/11/19 05:06:58;;;;;;;5.53;2.17;;;20.20;51.50;;;;;;5034473;28;20032;-58
2023/11/19 05:09:23;;;;;;;9.13;2.33;;;20.20;51.50;;;;;;5034293;28;20028;-59
2023/11/19 05:11:49;;;;;;;5.32;1.92;;;20.20;51.50;;;;;;5034419;28;20056;-58
2023/11/19 05:14:16;;;;;;;5.47;2.17;;;20.20;51.40;;;;;;5030584;28;20046;-60
2023/11/19 05:16:42;;;;;;;6.15;2.00;;;20.20;51.40;;;;;;5036609;28;20051;-60
2023/11/19 05:19:11;;;;;;;7.18;2.05;;;20.20;51.40;;;;;;5041724;28;20071;-60
2023/11/19 05:21:37;;;;;;;6.65;2.38;;;20.10;51.30;;;;;;5035742;28;20044;-61
2023/11/19 05:24:06;;;;;;;6.45;2.17;;;20.10;51.30;;;;;;5037952;28;20029;-61
2023/11/19 05:26:32;;;;;;;5.47;2.10;;;20.20;51.30;;;;;;5037082;28;20143;-59
2023/11/19 05:28:58;;;;;;;6.18;2.00;;;20.10;51.20;;;;;;5037265;28;20457;-60
2023/11/19 05:31:24;;;;;;;7.47;2.28;;;20.10;51.20;;;;;;5034966;28;20034;-60
2023/11/19 05:33:50;;;;;;;7.65;2.10;;;20.10;51.20;;;;;;5027340;28;20030;-61
2023/11/19 05:36:16;;;;;;;4.95;1.65;;;20.10;51.20;;;;;;5034926;28;20032;-58
2023/11/19 05:38:41;;;;;;;5.03;1.67;;;20.10;51.10;;;;;;5018645;28;20400;-59
2023/11/19 05:41:07;;;;;;;5.53;2.20;;;20.10;51.10;;;;;;5040059;28;20037;-61
2023/11/19 05:43:33;;;;;;;5.28;2.05;;;20.10;51.10;;;;;;5038411;28;20029;-57
2023/11/19 05:45:59;;;;;;;6.68;1.95;;;20.10;51.10;;;;;;5038471;28;20025;-59
2023/11/19 05:48:27;;;;;;;4.95;2.13;;;20.10;51.10;;;;;;5041961;28;20098;-58
2023/11/19 05:50:53;;;;;;;5.85;2.10;;;20.10;51.10;;;;;;5040499;28;20035;-58
2023/11/19 05:53:19;;;;;;;5.22;2.00;;;20.10;51.00;;;;;;5035768;28;20158;-59
2023/11/19 05:55:57;;;;;;;6.10;2.05;;;20.10;51.00;;;;;;5036425;28;20453;-59
2023/11/19 05:58:28;;;;;;;6.70;2.30;;;20.10;51.00;;;;;;5037899;28;20044;-56
2023/11/19 06:00:57;;;;;;;5.57;2.10;;;20.10;50.90;;;;;;5034753;28;20104;-57
2023/11/19 06:03:24;;;;;;;6.18;1.92;;;20.10;50.90;;;;;;5036959;28;20094;-59
2023/11/19 06:05:50;;;;;;;6.03;1.73;;;20.10;50.90;;;;;;5033514;28;20029;-56
2023/11/19 06:08:16;;;;;;;5.55;2.05;;;20.10;50.90;;;;;;5036750;28;20022;-57
2023/11/19 06:10:45;;;;;;;6.57;2.47;;;20.10;50.90;;;;;;5035880;28;20017;-58
2023/11/19 06:13:12;;;;;;;6.40;2.00;;;20.10;50.90;;;;;;5035290;28;20045;-62
2023/11/19 06:15:38;;;;;;;5.80;1.85;;;20.10;50.90;;;;;;5038155;28;20319;-57
2023/11/19 06:18:04;;;;;;;8.77;2.78;;;20.10;50.90;;;;;;5031320;28;20017;-59
2023/11/19 06:20:31;;;;;;;4.13;1.67;;;20.10;50.90;;;;;;5033651;28;20037;-61
2023/11/19 06:22:58;;;;;;;5.35;1.95;;;20.10;50.80;;;;;;5036585;28;20036;-59
2023/11/19 06:25:24;;;;;;;7.53;2.45;;;20.10;50.80;;;;;;5040534;28;20026;-59
2023/11/19 06:27:50;;;;;;;5.63;2.10;;;20.10;50.80;;;;;;5037631;28;20028;-58
2023/11/19 06:30:16;;;;;;;5.75;2.30;;;20.10;50.80;;;;;;5034666;28;21675;-60
2023/11/19 06:32:42;;;;;;;6.10;1.83;;;20.10;50.80;;;;;;5032278;28;20022;-58
2023/11/19 06:35:09;;;;;;;6.38;1.90;;;20.10;50.80;;;;;;5039206;28;20429;-59
2023/11/19 06:37:38;;;;;;;7.63;1.90;;;20.10;50.80;;;;;;5008475;28;20090;-60
2023/11/19 06:40:05;;;;;;;7.28;2.28;;;20.10;50.80;;;;;;5035305;28;20045;-60
2023/11/19 06:42:31;;;;;;;6.93;2.08;;;20.00;50.70;;;;;;5022270;28;20030;-60
2023/11/19 06:44:57;;;;;;;6.68;2.28;;;20.10;50.80;;;;;;5041070;28;20044;-59
2023/11/19 06:47:27;;;;;;;10.82;2.50;;;20.00;50.60;;;;;;5037949;28;20108;-59
2023/11/19 06:49:53;;;;;;;7.32;2.50;;;20.00;50.70;;;;;;5040340;28;20031;-59
2023/11/19 06:52:19;;;;;;;8.63;2.58;;;20.00;50.60;;;;;;5003642;28;20355;-57
2023/11/19 06:54:45;;;;;;;7.20;2.25;;;20.10;50.70;;;;;;5019420;28;20041;-59
2023/11/19 06:57:11;;;;;;;6.22;2.13;;;20.10;50.60;;;;;;5018140;28;20033;-62
2023/11/19 06:59:38;;;;;;;6.53;2.03;;;20.00;50.60;;;;;;5044317;28;20514;-59
2023/11/19 07:02:04;;;;;;;6.38;1.83;;;20.00;50.60;;;;;;5020241;28;20029;-59
2023/11/19 07:04:31;;;;;;;6.68;1.90;;;20.00;50.60;;;;;;5032366;28;20444;-58
2023/11/19 07:06:57;;;;;;;9.10;2.55;;;20.00;50.60;;;;;;5021180;28;20070;-58
2023/11/19 07:09:23;;;;;;;9.10;2.78;;;20.00;50.60;;;;;;5044642;28;20034;-56
2023/11/19 07:11:51;;;;;;;6.03;1.98;;;20.00;50.60;;;;;;5034984;28;20091;-58
2023/11/19 07:14:17;;;;;;;6.00;2.20;;;20.00;50.60;;;;;;5031493;28;20448;-59
2023/11/19 07:16:45;;;;;;;4.40;1.55;;;20.00;50.60;;;;;;5039890;28;20149;-61
2023/11/19 07:19:11;;;;;;;6.40;2.15;;;20.00;50.60;;;;;;5039555;28;20021;-60
2023/11/19 07:21:44;;;;;;;6.55;2.20;;;20.00;50.60;;;;;;5032978;28;20098;-58
2023/11/19 07:24:11;;;;;;;8.20;2.22;;;20.00;50.60;;;;;;5036368;28;20409;-58
2023/11/19 07:26:42;;;;;;;6.80;2.00;;;20.00;50.50;;;;;;5034425;28;20072;-59
2023/11/19 07:29:08;;;;;;;6.78;2.25;;;20.00;50.60;;;;;;5040137;28;20025;-55
2023/11/19 07:31:34;;;;;;;9.13;2.70;;;20.00;50.60;;;;;;5036648;28;20055;-59
2023/11/19 07:34:00;;;;;;;6.07;2.15;;;20.00;50.60;;;;;;5038097;28;20032;-59
2023/11/19 07:36:26;;;;;;;8.23;2.30;;;20.00;50.50;;;;;;5042809;28;20508;-58
2023/11/19 07:38:52;;;;;;;6.47;2.53;;;20.00;50.50;;;;;;5035687;28;20025;-56
2023/11/19 07:41:19;;;;;;;7.10;2.10;;;20.00;50.50;;;;;;5039264;28;20096;-60
2023/11/19 07:43:52;;;;;;;6.03;1.70;;;20.00;50.50;;;;;;5037193;28;20317;-59
2023/11/19 07:46:19;;;;;;;6.13;2.30;;;20.00;50.50;;;;;;5033916;28;20029;-59
2023/11/19 07:48:46;;;;;;;8.57;2.67;;;19.90;50.40;;;;;;5035673;28;20123;-56
2023/11/19 07:51:13;;;;;;;7.03;2.33;;;20.00;50.50;;;;;;5040479;28;20029;-58
2023/11/19 07:53:40;;;;;;;7.25;2.08;;;20.00;50.50;;;;;;5038453;28;20032;-59
2023/11/19 07:56:10;;;;;;;7.63;2.10;;;20.00;50.50;;;;;;5033859;28;20079;-59
2023/11/19 07:58:36;;;;;;;9.73;2.30;;;20.00;50.40;;;;;;5036400;28;20026;-57
2023/11/19 08:01:02;;;;;;;7.53;2.65;;;20.00;50.40;;;;;;5038114;28;20423;-59
2023/11/19 08:03:29;;;;;;;6.97;2.30;;;20.00;50.40;;;;;;5035139;28;20021;-60
2023/11/19 08:05:58;;;;;;;8.98;2.45;;;20.00;50.40;;;;;;5033484;28;20029;-61
2023/11/19 08:08:24;;;;;;;7.47;2.58;;;20.00;50.40;;;;;;5017058;28;20025;-58
2023/11/19 08:10:51;;;;;;;8.75;2.50;;;20.00;50.40;;;;;;5015866;28;20376;-60
2023/11/19 08:13:20;;;;;;;7.18;2.42;;;20.00;50.30;;;;;;5041062;28;20107;-60
2023/11/19 08:15:46;;;;;;;6.90;2.22;;;20.00;50.30;;;;;;5025461;28;20035;-60
2023/11/19 08:18:13;;;;;;;6.68;2.17;;;20.00;50.30;;;;;;5044514;28;20029;-60
2023/11/19 08:20:39;;;;;;;7.72;2.58;;;20.00;50.30;;;;;;5030881;28;20037;-59
2023/11/19 08:23:05;;;;;;;6.55;2.53;;;20.00;50.30;;;;;;5024979;28;20080;-60
2023/11/19 08:25:33;;;;;;;6.25;2.30;;;20.00;50.30;;;;;;5041203;28;20029;-60
2023/11/19 08:28:00;;;;;;;6.72;2.53;;;20.00;50.30;;;;;;5043036;28;20107;-59
2023/11/19 08:30:26;;;;;;;6.85;2.03;;;20.00;50.30;;;;;;5044319;28;20025;-60
2023/11/19 08:32:52;;;;;;;8.40;2.50;;;20.00;50.30;;;;;;5045802;28;20048;-60
2023/11/19 08:35:18;;;;;;;6.25;2.13;;;20.00;50.30;;;;;;5042734;28;20445;-60
2023/11/19 08:37:45;;;;;;;7.47;2.38;;;20.00;50.40;;;;;;5047446;28;20040;-58
2023/11/19 08:40:14;;;;;;;7.95;2.42;;;20.00;50.40;;;;;;5039559;28;20121;-60
2023/11/19 08:42:40;;;;;;;6.03;2.15;;;20.00;50.40;;;;;;5033575;28;20029;-61
2023/11/19 08:45:10;;;;;;;6.38;2.35;;;20.00;50.40;;;;;;5019829;28;20114;-61
2023/11/19 08:47:36;;;;;;;7.95;2.35;;;20.00;50.40;;;;;;5027562;28;20055;-60
2023/11/19 08:50:03;;;;;;;5.40;1.90;;;20.00;50.40;;;;;;5039504;28;20021;-59
2023/11/19 08:52:30;;;;;;;6.78;2.38;;;20.00;50.40;;;;;;5053337;28;20443;-59
2023/11/19 08:54:57;;;;;;;6.43;2.40;;;20.00;50.40;;;;;;5048395;28;20108;-59
2023/11/19 08:57:22;;;;;;;7.63;2.65;;;20.00;50.40;;;;;;5047292;28;20146;-60
2023/11/19 08:59:48;;;;;;;6.22;2.35;;;20.00;50.50;;;;;;5048527;28;20055;-59
2023/11/19 09:02:14;;;;;;;7.70;2.60;;;20.00;50.50;;;;;;5051642;28;20029;-60
2023/11/19 09:04:41;;;;;;;8.35;2.97;;;20.00;50.40;;;;;;5046986;28;20024;-60
2023/11/19 09:07:09;;;;;;;9.02;2.88;;;20.00;50.50;;;;;;5050762;28;20035;-57
2023/11/19 09:09:36;;;;;;;9.32;2.67;;;20.00;50.50;;;;;;5048801;28;20033;-60
2023/11/19 09:12:03;;;;;;;6.97;2.33;;;20.00;50.40;;;;;;5028088;28;20542;-59
2023/11/19 09:14:30;;;;;;;7.45;2.80;;;20.00;50.40;;;;;;5045231;28;20041;-61
2023/11/19 09:16:56;;;;;;;7.18;2.30;;;20.00;50.40;;;;;;5050566;28;20357;-59
2023/11/19 09:19:22;;;;;;;7.20;2.88;;;20.00;50.40;;;;;;5041823;28;20029;-59
2023/11/19 09:21:49;;;;;;;6.25;2.22;;;20.00;50.40;;;;;;5050084;28;20059;-58
2023/11/19 09:24:15;;;;;;;6.20;2.25;;;20.00;50.40;;;;;;5045959;28;20379;-60
2023/11/19 09:26:41;;;;;;;10.00;3.10;;;20.00;50.40;;;;;;5048949;28;20061;-59
2023/11/19 09:29:08;;;;;;;8.50;2.25;;;20.00;50.40;;;;;;5036533;28;20047;-60
2023/11/19 09:31:34;;;;;;;9.40;3.20;;;20.00;50.40;;;;;;5023335;28;20059;-56
2023/11/19 09:34:01;;;;;;;5.95;1.90;;;20.00;50.30;;;;;;5046758;28;20455;-56
2023/11/19 09:36:27;;;;;;;6.32;2.25;;;20.00;50.20;;;;;;5048630;28;20052;-56
2023/11/19 09:38:52;;;;;;;4.55;1.50;;;20.00;50.20;;;;;;5045019;28;20352;-54
2023/11/19 09:41:19;;;;;;;4.95;1.63;;;20.00;50.20;;;;;;5054061;28;20448;-50
2023/11/19 09:43:45;;;;;;;4.97;1.75;;;20.00;50.10;;;;;;5057724;28;20502;-55
2023/11/19 09:46:15;;;;;;;4.97;2.03;;;20.00;50.10;;;;;;5057980;28;20136;-52
2023/11/19 09:48:42;;;;;;;6.32;1.75;;;20.00;50.00;;;;;;5044220;28;20049;-54
2023/11/19 09:51:09;;;;;;;6.25;2.13;;;20.00;50.30;;;;;;5055805;28;20044;-59
2023/11/19 09:53:36;;;;;;;4.40;1.77;;;19.90;50.00;;;;;;5057290;28;20443;-58
2023/11/19 09:56:03;;;;;;;4.75;1.60;;;19.90;50.00;;;;;;5040198;28;20116;-59
2023/11/19 09:58:33;;;;;;;4.25;1.77;;;19.90;49.90;;;;;;5057460;28;20484;-59
2023/11/19 10:01:00;;;;;;;5.70;1.80;;;19.90;49.90;;;;;;5057694;28;20047;-61
2023/11/19 10:03:28;;;;;;;6.18;2.10;;;19.90;50.00;;;;;;5056865;28;20039;-58
2023/11/19 10:05:56;;;;;;;7.38;3.55;;;19.90;50.00;;;;;;5038491;28;20041;-52
2023/11/19 10:08:22;;;;;;;12.40;5.30;;;19.90;50.10;;;;;;5038064;28;20555;-58
2023/11/19 10:10:48;;;;;;;11.38;5.32;;;20.00;50.80;;;;;;5035794;28;20461;-60
2023/11/19 10:13:14;;;;;;;13.73;5.60;;;20.00;51.60;;;;;;5037070;28;20022;-60
2023/11/19 10:15:41;;;;;;;14.15;7.03;;;20.00;52.30;;;;;;5037466;28;20079;-60
2023/11/19 10:18:07;;;;;;;14.50;5.55;;;20.10;53.00;;;;;;5037169;28;20132;-60
2023/11/19 10:20:37;;;;;;;11.95;5.68;;;20.10;53.30;;;;;;5041741;28;20029;-60
2023/11/19 10:23:03;;;;;;;13.07;5.32;;;20.10;53.50;;;;;;5036577;28;20079;-58
2023/11/19 10:25:30;;;;;;;11.90;4.72;;;20.10;53.80;;;;;;5037082;28;20039;-60
2023/11/19 10:27:57;;;;;;;17.85;6.53;;;20.10;54.10;;;;;;5037830;28;20034;-59
2023/11/19 10:30:27;;;;;;;15.10;7.55;;;20.10;54.50;;;;;;5036765;28;20075;-58
2023/11/19 10:33:04;;;;;;;20.85;8.43;;;20.20;55.20;;;;;;5036827;28;20453;-55
2023/11/19 10:35:30;;;;;;;15.60;7.10;;;20.20;55.70;;;;;;5036701;28;20025;-56
2023/11/19 10:37:56;;;;;;;17.02;7.28;;;20.20;55.70;;;;;;5036690;28;20017;-57
2023/11/19 10:40:21;;;;;;;14.73;6.60;;;20.30;56.00;;;;;;5036660;28;20361;-55
2023/11/19 10:42:47;;;;;;;15.25;6.97;;;20.30;56.10;;;;;;5036735;28;20037;-56
2023/11/19 10:45:23;;;;;;;14.95;6.88;;;20.30;56.20;;;;;;5036436;28;20037;-58
2023/11/19 10:47:52;;;;;;;15.52;7.32;;;20.30;56.40;;;;;;5036196;28;20030;-55
2023/11/19 10:50:18;;;;;;;13.75;6.22;;;20.30;56.40;;;;;;5040854;28;20439;-60
2023/11/19 10:52:46;;;;;;;7.47;3.53;;;20.30;56.30;;;;;;5056181;28;20032;-61
2023/11/19 10:55:14;;;;;;;9.18;3.63;;;20.30;55.70;;;;;;5050681;28;20025;-60
2023/11/19 10:57:46;;;;;;;6.00;2.60;;;20.30;55.00;;;;;;5033603;28;20437;-55
2023/11/19 11:00:18;;;;;;;7.32;2.40;;;20.30;54.70;;;;;;5032937;28;20033;-60
2023/11/19 11:02:46;;;;;;;6.78;2.70;;;20.30;54.30;;;;;;5030133;28;20032;-58
2023/11/19 11:05:14;;;;;;;6.30;2.05;;;20.20;53.90;;;;;;5034809;28;20025;-55
2023/11/19 11:07:42;;;;;;;8.02;2.78;;;20.30;53.60;;;;;;5033026;28;20103;-58
2023/11/19 11:10:09;;;;;;;6.85;2.42;;;20.30;53.40;;;;;;5032795;28;20029;-58
2023/11/19 11:12:41;;;;;;;6.70;2.60;;;20.30;53.10;;;;;;5031766;28;20033;-58
2023/11/19 11:15:08;;;;;;;7.30;2.60;;;20.30;52.90;;;;;;5033697;28;20041;-59
2023/11/19 11:17:34;;;;;;;5.53;1.98;;;20.30;52.70;;;;;;5034589;28;20096;-58
2023/11/19 11:20:00;;;;;;;7.00;2.28;;;20.30;52.60;;;;;;5032573;28;20026;-58
2023/11/19 11:22:28;;;;;;;6.97;2.53;;;20.30;52.40;;;;;;5032444;28;20040;-59
2023/11/19 11:25:43;;;;;;;7.55;2.35;;;20.30;52.20;;;;;;5034963;28;20025;-58
2023/11/19 11:28:15;;;;;;;9.30;2.40;;;20.30;52.00;;;;;;4987811;28;20124;-59
2023/11/19 11:31:09;;;;;;;7.32;2.40;;;20.30;52.00;;;;;;5028541;28;20044;-60
2023/11/19 11:33:38;;;;;;;6.72;2.17;;;20.30;51.70;;;;;;5034430;28;20061;-59
2023/11/19 11:36:22;;;;;;;6.28;2.28;;;20.30;51.70;;;;;;5077492;28;20401;-59
2023/11/19 11:38:49;;;;;;;6.95;2.20;;;20.30;51.50;;;;;;5064132;28;20439;-56
2023/11/19 11:41:20;;;;;;;5.47;2.20;;;20.30;51.50;;;;;;5077305;28;20029;-60
2023/11/19 11:43:50;;;;;;;7.53;2.60;;;20.30;51.30;;;;;;5053665;28;20056;-58
2023/11/19 11:46:37;;;;;;;7.25;2.40;;;20.30;51.30;;;;;;5037722;28;20462;-60
2023/11/19 11:49:04;;;;;;;6.95;2.40;;;20.40;51.20;;;;;;5070478;28;20116;-61
2023/11/19 11:51:45;;;;;;;8.57;2.53;;;20.40;51.10;;;;;;5054733;28;20041;-58
2023/11/19 11:54:20;;;;;;;6.45;2.35;;;20.40;50.90;;;;;;5079224;28;20119;-59
2023/11/19 11:57:06;;;;;;;6.82;2.10;;;20.50;50.80;;;;;;5084904;28;20028;-57
2023/11/19 11:59:37;;;;;;;5.35;2.20;;;20.60;50.80;;;;;;5082878;28;20024;-59
2023/11/19 12:02:03;;;;;;;5.22;2.17;;;20.60;50.60;;;;;;5078886;28;20036;-59
2023/11/19 12:04:29;;;;;;;5.93;2.42;;;20.70;50.60;;;;;;5075207;28;20036;-58
2023/11/19 12:07:13;;;;;;;6.82;2.47;;;20.70;50.40;;;;;;5080827;28;20028;-57
2023/11/19 12:09:47;;;;;;;5.55;2.03;;;20.70;50.20;;;;;;5067469;28;20064;-60
2023/11/19 12:12:23;;;;;;;5.63;1.95;;;20.80;50.20;;;;;;5071913;28;20052;-60
2023/11/19 12:14:58;;;;;;;5.57;2.60;;;20.90;50.10;;;;;;5077565;28;20430;-57
2023/11/19 12:17:33;;;;;;;7.05;2.60;;;20.90;50.00;;;;;;5070084;28;20051;-60
2023/11/19 12:20:06;;;;;;;8.05;2.75;;;20.90;49.90;;;;;;5082710;28;20020;-59
2023/11/19 12:22:32;;;;;;;5.97;2.25;;;20.90;49.90;;;;;;5078075;28;20025;-61
2023/11/19 12:24:58;;;;;;;8.50;2.53;;;21.00;49.90;;;;;;5046880;28;21666;-59
2023/11/19 12:27:26;;;;;;;7.18;2.25;;;21.00;49.80;;;;;;5065933;28;20021;-61
2023/11/19 12:29:53;;;;;;;5.00;1.85;;;21.00;49.70;;;;;;5069797;28;20253;-59
2023/11/19 12:32:19;;;;;;;6.07;2.03;;;21.00;49.60;;;;;;5055010;28;20102;-62
2023/11/19 12:34:45;;;;;;;6.18;2.10;;;21.10;49.60;;;;;;5063257;28;20046;-61
2023/11/19 12:37:11;;;;;;;5.05;1.77;;;21.10;49.50;;;;;;5053646;28;20012;-61
2023/11/19 12:39:40;;;;;;;4.00;1.48;;;21.10;49.40;;;;;;5046487;28;20029;-62
2023/11/19 12:42:06;;;;;;;6.15;2.22;;;21.10;49.40;;;;;;5051397;28;20020;-63
2023/11/19 12:44:34;;;;;;;4.57;1.85;;;21.10;49.40;;;;;;5029784;28;20345;-59
2023/11/19 12:47:04;;;;;;;4.20;1.85;;;21.10;49.40;;;;;;5030388;28;20060;-55
2023/11/19 12:49:30;;;;;;;5.03;2.00;;;21.10;49.40;;;;;;5039116;28;20029;-60